Airport View

Enter AWOS ICAO identifier for current METAR.

ex. KFNL

KCWA 100458Z AUTO 05003KT 10SM RA OVC065 18/17 A2988 RMK AO2 P0001

10 Jul 2020 04:58

Frequency: 127.45

Phone: 715-693-1116

Other Area AWOS: KAUW - KSTE - KMFI - KRRL

TAF AMD KCWA 100245Z 1003/1024 30005KT P6SM -RA BKN010 BKN040 TEMPO 1003/1005 4SM -TSRA BR OVC025CB FM100800 30004KT P6SM SCT015 BKN035 FM101100 32008KT P6SM SCT025 BKN120 FM101500 32010G17KT P6SM SCT035